sensor_id;sensor_type;location;lat;lon;timestamp;P1;durP1;ratioP1;P2;durP2;ratioP2
58516;SDS011;44308;50.810;0.284;2022-11-15T00:00:54;11.57;;;1.77;;
58516;SDS011;44308;50.810;0.284;2022-11-15T00:03:21;9.57;;;1.73;;
58516;SDS011;44308;50.810;0.284;2022-11-15T00:05:49;10.85;;;1.70;;
58516;SDS011;44308;50.810;0.284;2022-11-15T00:08:15;11.55;;;2.65;;
58516;SDS011;44308;50.810;0.284;2022-11-15T00:10:41;5.70;;;1.50;;
58516;SDS011;44308;50.810;0.284;2022-11-15T00:13:11;6.85;;;2.00;;
58516;SDS011;44308;50.810;0.284;2022-11-15T00:15:39;13.07;;;2.08;;
58516;SDS011;44308;50.810;0.284;2022-11-15T00:18:06;4.70;;;1.42;;
58516;SDS011;44308;50.810;0.284;2022-11-15T00:20:37;5.93;;;1.73;;
58516;SDS011;44308;50.810;0.284;2022-11-15T00:23:03;14.95;;;2.05;;
58516;SDS011;44308;50.810;0.284;2022-11-15T00:25:30;6.97;;;2.10;;
58516;SDS011;44308;50.810;0.284;2022-11-15T00:27:56;3.35;;;1.42;;
58516;SDS011;44308;50.810;0.284;2022-11-15T00:30:23;8.07;;;1.63;;
58516;SDS011;44308;50.810;0.284;2022-11-15T00:32:49;8.95;;;1.83;;
58516;SDS011;44308;50.810;0.284;2022-11-15T00:38:39;7.63;;;1.75;;
58516;SDS011;44308;50.810;0.284;2022-11-15T00:41:06;17.80;;;2.25;;
58516;SDS011;44308;50.810;0.284;2022-11-15T00:43:32;7.32;;;2.28;;
58516;SDS011;44308;50.810;0.284;2022-11-15T00:48:45;9.38;;;1.77;;
58516;SDS011;44308;50.810;0.284;2022-11-15T00:51:11;5.75;;;2.10;;
58516;SDS011;44308;50.810;0.284;2022-11-15T00:53:36;12.07;;;2.70;;
58516;SDS011;44308;50.810;0.284;2022-11-15T00:58:47;12.18;;;2.50;;
58516;SDS011;44308;50.810;0.284;2022-11-15T01:01:13;10.05;;;2.25;;
58516;SDS011;44308;50.810;0.284;2022-11-15T01:03:39;8.63;;;2.28;;
58516;SDS011;44308;50.810;0.284;2022-11-15T01:06:08;7.22;;;2.10;;
58516;SDS011;44308;50.810;0.284;2022-11-15T01:08:35;8.25;;;2.47;;
58516;SDS011;44308;50.810;0.284;2022-11-15T01:11:05;16.20;;;2.78;;
58516;SDS011;44308;50.810;0.284;2022-11-15T01:13:34;10.77;;;2.20;;
58516;SDS011;44308;50.810;0.284;2022-11-15T01:19:41;8.38;;;2.60;;
58516;SDS011;44308;50.810;0.284;2022-11-15T01:22:06;11.18;;;2.35;;
58516;SDS011;44308;50.810;0.284;2022-11-15T01:24:32;11.45;;;2.50;;
58516;SDS011;44308;50.810;0.284;2022-11-15T01:26:58;18.95;;;2.67;;
58516;SDS011;44308;50.810;0.284;2022-11-15T01:29:24;9.57;;;2.13;;
58516;SDS011;44308;50.810;0.284;2022-11-15T01:31:49;12.70;;;1.80;;
58516;SDS011;44308;50.810;0.284;2022-11-15T01:34:15;10.57;;;2.30;;
58516;SDS011;44308;50.810;0.284;2022-11-15T01:36:41;6.82;;;1.98;;
58516;SDS011;44308;50.810;0.284;2022-11-15T01:39:07;7.95;;;1.70;;
58516;SDS011;44308;50.810;0.284;2022-11-15T01:41:33;9.63;;;2.00;;
58516;SDS011;44308;50.810;0.284;2022-11-15T01:47:01;10.95;;;2.25;;
58516;SDS011;44308;50.810;0.284;2022-11-15T01:49:29;6.55;;;2.00;;
58516;SDS011;44308;50.810;0.284;2022-11-15T01:51:58;12.52;;;2.67;;
58516;SDS011;44308;50.810;0.284;2022-11-15T01:54:27;20.25;;;2.97;;
58516;SDS011;44308;50.810;0.284;2022-11-15T01:59:39;14.25;;;2.67;;
58516;SDS011;44308;50.810;0.284;2022-11-15T02:02:08;10.45;;;2.05;;
58516;SDS011;44308;50.810;0.284;2022-11-15T02:04:36;12.27;;;2.55;;
58516;SDS011;44308;50.810;0.284;2022-11-15T02:07:05;8.10;;;3.42;;
58516;SDS011;44308;50.810;0.284;2022-11-15T02:09:33;14.93;;;2.95;;
58516;SDS011;44308;50.810;0.284;2022-11-15T02:12:01;10.57;;;2.63;;
58516;SDS011;44308;50.810;0.284;2022-11-15T02:14:27;18.80;;;2.72;;
58516;SDS011;44308;50.810;0.284;2022-11-15T02:26:18;13.40;;;2.80;;
58516;SDS011;44308;50.810;0.284;2022-11-15T02:31:44;16.30;;;2.92;;
58516;SDS011;44308;50.810;0.284;2022-11-15T02:40:06;19.75;;;3.22;;
58516;SDS011;44308;50.810;0.284;2022-11-15T02:43:10;11.40;;;2.80;;
58516;SDS011;44308;50.810;0.284;2022-11-15T02:49:14;19.02;;;3.60;;
58516;SDS011;44308;50.810;0.284;2022-11-15T02:51:40;17.92;;;3.00;;
58516;SDS011;44308;50.810;0.284;2022-11-15T02:54:12;9.98;;;3.38;;
58516;SDS011;44308;50.810;0.284;2022-11-15T02:56:45;7.40;;;2.45;;
58516;SDS011;44308;50.810;0.284;2022-11-15T02:59:26;15.23;;;3.00;;
58516;SDS011;44308;50.810;0.284;2022-11-15T03:09:56;28.75;;;4.72;;
58516;SDS011;44308;50.810;0.284;2022-11-15T03:15:07;18.63;;;4.60;;
58516;SDS011;44308;50.810;0.284;2022-11-15T03:17:47;20.17;;;4.25;;
58516;SDS011;44308;50.810;0.284;2022-11-15T03:20:18;15.32;;;3.72;;
58516;SDS011;44308;50.810;0.284;2022-11-15T03:22:45;20.98;;;5.07;;
58516;SDS011;44308;50.810;0.284;2022-11-15T03:25:16;14.75;;;4.03;;
58516;SDS011;44308;50.810;0.284;2022-11-15T03:27:46;18.58;;;4.00;;
58516;SDS011;44308;50.810;0.284;2022-11-15T03:30:15;18.33;;;4.03;;
58516;SDS011;44308;50.810;0.284;2022-11-15T03:32:43;19.65;;;3.80;;
58516;SDS011;44308;50.810;0.284;2022-11-15T03:38:24;15.20;;;3.20;;
58516;SDS011;44308;50.810;0.284;2022-11-15T03:46:19;15.97;;;3.63;;
58516;SDS011;44308;50.810;0.284;2022-11-15T03:48:52;12.07;;;3.10;;
58516;SDS011;44308;50.810;0.284;2022-11-15T03:51:21;20.00;;;3.60;;
58516;SDS011;44308;50.810;0.284;2022-11-15T03:53:48;15.45;;;3.75;;
58516;SDS011;44308;50.810;0.284;2022-11-15T03:56:13;17.13;;;3.80;;
58516;SDS011;44308;50.810;0.284;2022-11-15T03:58:39;9.43;;;3.03;;
58516;SDS011;44308;50.810;0.284;2022-11-15T04:01:05;12.25;;;2.85;;
58516;SDS011;44308;50.810;0.284;2022-11-15T04:03:31;12.07;;;3.00;;
58516;SDS011;44308;50.810;0.284;2022-11-15T04:08:27;16.25;;;3.17;;
58516;SDS011;44308;50.810;0.284;2022-11-15T04:10:53;20.58;;;3.60;;
58516;SDS011;44308;50.810;0.284;2022-11-15T04:13:18;16.73;;;3.67;;
58516;SDS011;44308;50.810;0.284;2022-11-15T04:18:29;15.77;;;3.38;;
58516;SDS011;44308;50.810;0.284;2022-11-15T04:20:54;18.70;;;3.70;;
58516;SDS011;44308;50.810;0.284;2022-11-15T04:23:39;15.88;;;3.40;;
58516;SDS011;44308;50.810;0.284;2022-11-15T04:29:27;15.32;;;3.70;;
58516;SDS011;44308;50.810;0.284;2022-11-15T04:32:05;12.38;;;3.47;;
58516;SDS011;44308;50.810;0.284;2022-11-15T04:34:31;10.68;;;2.88;;
58516;SDS011;44308;50.810;0.284;2022-11-15T04:39:39;13.27;;;3.25;;
58516;SDS011;44308;50.810;0.284;2022-11-15T04:42:05;18.10;;;4.18;;
58516;SDS011;44308;50.810;0.284;2022-11-15T04:44:31;15.35;;;4.05;;
58516;SDS011;44308;50.810;0.284;2022-11-15T04:46:57;17.20;;;3.72;;
58516;SDS011;44308;50.810;0.284;2022-11-15T04:49:23;15.20;;;3.63;;
58516;SDS011;44308;50.810;0.284;2022-11-15T04:51:48;22.58;;;3.80;;
58516;SDS011;44308;50.810;0.284;2022-11-15T04:54:14;14.57;;;3.55;;
58516;SDS011;44308;50.810;0.284;2022-11-15T04:56:41;12.95;;;3.53;;
58516;SDS011;44308;50.810;0.284;2022-11-15T04:59:07;16.02;;;3.75;;
58516;SDS011;44308;50.810;0.284;2022-11-15T05:01:32;15.70;;;3.47;;
58516;SDS011;44308;50.810;0.284;2022-11-15T05:03:58;22.25;;;3.20;;
58516;SDS011;44308;50.810;0.284;2022-11-15T05:10:05;16.30;;;3.33;;
58516;SDS011;44308;50.810;0.284;2022-11-15T05:12:31;12.82;;;3.15;;
58516;SDS011;44308;50.810;0.284;2022-11-15T05:14:59;21.50;;;4.07;;
58516;SDS011;44308;50.810;0.284;2022-11-15T05:17:24;15.27;;;3.30;;
58516;SDS011;44308;50.810;0.284;2022-11-15T05:19:50;11.95;;;3.50;;
58516;SDS011;44308;50.810;0.284;2022-11-15T05:22:17;9.00;;;3.58;;
58516;SDS011;44308;50.810;0.284;2022-11-15T05:24:43;15.40;;;3.83;;
58516;SDS011;44308;50.810;0.284;2022-11-15T05:27:09;22.02;;;5.03;;
58516;SDS011;44308;50.810;0.284;2022-11-15T05:29:34;12.80;;;3.08;;
58516;SDS011;44308;50.810;0.284;2022-11-15T05:32:00;19.40;;;4.40;;
58516;SDS011;44308;50.810;0.284;2022-11-15T05:34:26;16.65;;;3.78;;
58516;SDS011;44308;50.810;0.284;2022-11-15T05:36:52;13.15;;;3.65;;
58516;SDS011;44308;50.810;0.284;2022-11-15T05:39:18;17.13;;;3.83;;
58516;SDS011;44308;50.810;0.284;2022-11-15T05:41:44;17.30;;;3.28;;
58516;SDS011;44308;50.810;0.284;2022-11-15T05:44:17;27.30;;;4.45;;
58516;SDS011;44308;50.810;0.284;2022-11-15T05:46:45;16.38;;;3.13;;
58516;SDS011;44308;50.810;0.284;2022-11-15T05:49:13;17.77;;;3.85;;
58516;SDS011;44308;50.810;0.284;2022-11-15T05:51:42;19.40;;;4.20;;
58516;SDS011;44308;50.810;0.284;2022-11-15T05:54:09;18.73;;;3.78;;
58516;SDS011;44308;50.810;0.284;2022-11-15T05:56:36;20.23;;;3.63;;
58516;SDS011;44308;50.810;0.284;2022-11-15T05:59:01;15.95;;;3.78;;
58516;SDS011;44308;50.810;0.284;2022-11-15T06:01:28;13.20;;;3.65;;
58516;SDS011;44308;50.810;0.284;2022-11-15T06:03:56;26.00;;;3.75;;
58516;SDS011;44308;50.810;0.284;2022-11-15T06:06:26;13.07;;;3.95;;
58516;SDS011;44308;50.810;0.284;2022-11-15T06:08:53;13.23;;;3.58;;
58516;SDS011;44308;50.810;0.284;2022-11-15T06:11:18;24.02;;;4.03;;
58516;SDS011;44308;50.810;0.284;2022-11-15T06:13:44;13.63;;;3.90;;
58516;SDS011;44308;50.810;0.284;2022-11-15T06:16:11;16.48;;;4.18;;
58516;SDS011;44308;50.810;0.284;2022-11-15T06:18:37;18.73;;;4.03;;
58516;SDS011;44308;50.810;0.284;2022-11-15T06:21:03;20.40;;;4.43;;
58516;SDS011;44308;50.810;0.284;2022-11-15T06:23:31;19.95;;;3.78;;
58516;SDS011;44308;50.810;0.284;2022-11-15T06:26:00;19.35;;;4.30;;
58516;SDS011;44308;50.810;0.284;2022-11-15T06:28:30;36.38;;;4.88;;
58516;SDS011;44308;50.810;0.284;2022-11-15T06:31:07;18.15;;;4.55;;
58516;SDS011;44308;50.810;0.284;2022-11-15T06:33:36;17.17;;;4.07;;
58516;SDS011;44308;50.810;0.284;2022-11-15T06:36:02;15.82;;;3.85;;
58516;SDS011;44308;50.810;0.284;2022-11-15T06:38:29;21.17;;;4.13;;
58516;SDS011;44308;50.810;0.284;2022-11-15T06:41:00;13.02;;;3.95;;
58516;SDS011;44308;50.810;0.284;2022-11-15T06:43:30;18.35;;;3.92;;
58516;SDS011;44308;50.810;0.284;2022-11-15T06:45:57;13.63;;;3.88;;
58516;SDS011;44308;50.810;0.284;2022-11-15T06:48:24;19.27;;;4.50;;
58516;SDS011;44308;50.810;0.284;2022-11-15T06:50:54;20.23;;;4.15;;
58516;SDS011;44308;50.810;0.284;2022-11-15T06:53:20;11.07;;;3.28;;
58516;SDS011;44308;50.810;0.284;2022-11-15T06:58:32;18.15;;;3.65;;
58516;SDS011;44308;50.810;0.284;2022-11-15T07:01:02;22.48;;;4.68;;
58516;SDS011;44308;50.810;0.284;2022-11-15T07:03:31;20.13;;;4.25;;
58516;SDS011;44308;50.810;0.284;2022-11-15T07:05:58;13.70;;;4.38;;
58516;SDS011;44308;50.810;0.284;2022-11-15T07:08:24;36.78;;;4.38;;
58516;SDS011;44308;50.810;0.284;2022-11-15T07:10:52;12.55;;;3.83;;
58516;SDS011;44308;50.810;0.284;2022-11-15T07:13:17;21.85;;;3.78;;
58516;SDS011;44308;50.810;0.284;2022-11-15T07:15:44;18.92;;;4.05;;
58516;SDS011;44308;50.810;0.284;2022-11-15T07:18:10;21.48;;;4.15;;
58516;SDS011;44308;50.810;0.284;2022-11-15T07:20:36;14.85;;;3.75;;
58516;SDS011;44308;50.810;0.284;2022-11-15T07:23:02;19.80;;;4.70;;
58516;SDS011;44308;50.810;0.284;2022-11-15T07:28:18;23.92;;;4.32;;
58516;SDS011;44308;50.810;0.284;2022-11-15T07:31:14;20.15;;;4.65;;
58516;SDS011;44308;50.810;0.284;2022-11-15T07:34:05;16.92;;;3.72;;
58516;SDS011;44308;50.810;0.284;2022-11-15T07:36:32;23.52;;;4.85;;
58516;SDS011;44308;50.810;0.284;2022-11-15T07:38:58;21.13;;;4.53;;
58516;SDS011;44308;50.810;0.284;2022-11-15T07:41:23;22.88;;;4.60;;
58516;SDS011;44308;50.810;0.284;2022-11-15T07:43:52;17.58;;;5.03;;
58516;SDS011;44308;50.810;0.284;2022-11-15T07:46:18;18.88;;;4.97;;
58516;SDS011;44308;50.810;0.284;2022-11-15T07:48:43;21.85;;;3.92;;
58516;SDS011;44308;50.810;0.284;2022-11-15T07:51:13;27.38;;;5.05;;
58516;SDS011;44308;50.810;0.284;2022-11-15T07:53:40;14.57;;;4.25;;
58516;SDS011;44308;50.810;0.284;2022-11-15T07:56:07;28.88;;;5.75;;
58516;SDS011;44308;50.810;0.284;2022-11-15T07:58:34;26.50;;;4.63;;
58516;SDS011;44308;50.810;0.284;2022-11-15T08:01:03;19.30;;;4.40;;
58516;SDS011;44308;50.810;0.284;2022-11-15T08:03:33;21.90;;;4.93;;
58516;SDS011;44308;50.810;0.284;2022-11-15T08:06:00;16.73;;;4.65;;
58516;SDS011;44308;50.810;0.284;2022-11-15T08:08:26;25.42;;;5.43;;
58516;SDS011;44308;50.810;0.284;2022-11-15T08:10:52;26.92;;;6.03;;
58516;SDS011;44308;50.810;0.284;2022-11-15T08:13:20;28.92;;;6.05;;
58516;SDS011;44308;50.810;0.284;2022-11-15T08:15:48;27.63;;;5.75;;
58516;SDS011;44308;50.810;0.284;2022-11-15T08:18:14;26.48;;;5.30;;
58516;SDS011;44308;50.810;0.284;2022-11-15T08:20:41;25.38;;;5.70;;
58516;SDS011;44308;50.810;0.284;2022-11-15T08:23:07;32.88;;;5.35;;
58516;SDS011;44308;50.810;0.284;2022-11-15T08:25:36;34.05;;;5.53;;
58516;SDS011;44308;50.810;0.284;2022-11-15T08:28:03;38.92;;;5.70;;
58516;SDS011;44308;50.810;0.284;2022-11-15T08:30:31;29.65;;;5.45;;
58516;SDS011;44308;50.810;0.284;2022-11-15T08:33:01;33.17;;;5.68;;
58516;SDS011;44308;50.810;0.284;2022-11-15T08:38:32;30.08;;;6.32;;
58516;SDS011;44308;50.810;0.284;2022-11-15T08:40:59;21.83;;;5.95;;
58516;SDS011;44308;50.810;0.284;2022-11-15T08:43:28;27.55;;;5.25;;
58516;SDS011;44308;50.810;0.284;2022-11-15T08:45:58;25.80;;;5.45;;
58516;SDS011;44308;50.810;0.284;2022-11-15T08:48:24;22.90;;;4.40;;
58516;SDS011;44308;50.810;0.284;2022-11-15T08:50:53;31.60;;;5.70;;
58516;SDS011;44308;50.810;0.284;2022-11-15T08:53:20;25.80;;;5.55;;
58516;SDS011;44308;50.810;0.284;2022-11-15T08:58:14;22.88;;;5.00;;
58516;SDS011;44308;50.810;0.284;2022-11-15T09:00:40;43.03;;;5.00;;
58516;SDS011;44308;50.810;0.284;2022-11-15T09:03:06;37.92;;;5.57;;
58516;SDS011;44308;50.810;0.284;2022-11-15T09:05:35;32.35;;;5.80;;
58516;SDS011;44308;50.810;0.284;2022-11-15T09:08:02;30.30;;;6.05;;
58516;SDS011;44308;50.810;0.284;2022-11-15T09:10:28;30.02;;;6.57;;
58516;SDS011;44308;50.810;0.284;2022-11-15T09:12:56;38.03;;;6.20;;
58516;SDS011;44308;50.810;0.284;2022-11-15T09:15:23;21.63;;;5.25;;
58516;SDS011;44308;50.810;0.284;2022-11-15T09:17:49;35.72;;;6.30;;
58516;SDS011;44308;50.810;0.284;2022-11-15T09:20:15;33.22;;;5.65;;
58516;SDS011;44308;50.810;0.284;2022-11-15T09:22:40;41.63;;;6.93;;
58516;SDS011;44308;50.810;0.284;2022-11-15T09:27:52;31.92;;;5.97;;
58516;SDS011;44308;50.810;0.284;2022-11-15T09:30:17;34.83;;;6.00;;
58516;SDS011;44308;50.810;0.284;2022-11-15T09:32:43;28.42;;;5.80;;
58516;SDS011;44308;50.810;0.284;2022-11-15T09:35:09;34.67;;;6.03;;
58516;SDS011;44308;50.810;0.284;2022-11-15T09:37:35;26.50;;;5.45;;
58516;SDS011;44308;50.810;0.284;2022-11-15T09:40:00;31.40;;;6.82;;
58516;SDS011;44308;50.810;0.284;2022-11-15T09:47:49;36.15;;;6.22;;
58516;SDS011;44308;50.810;0.284;2022-11-15T09:53:05;36.08;;;6.93;;
58516;SDS011;44308;50.810;0.284;2022-11-15T09:58:34;33.20;;;7.25;;
58516;SDS011;44308;50.810;0.284;2022-11-15T10:01:06;38.47;;;7.40;;
58516;SDS011;44308;50.810;0.284;2022-11-15T10:03:37;30.55;;;6.45;;
58516;SDS011;44308;50.810;0.284;2022-11-15T10:06:08;23.20;;;5.93;;
58516;SDS011;44308;50.810;0.284;2022-11-15T10:11:37;36.38;;;7.00;;
58516;SDS011;44308;50.810;0.284;2022-11-15T10:23:05;39.25;;;6.70;;
58516;SDS011;44308;50.810;0.284;2022-11-15T10:27:37;32.63;;;6.65;;
58516;SDS011;44308;50.810;0.284;2022-11-15T10:30:12;31.05;;;6.00;;
58516;SDS011;44308;50.810;0.284;2022-11-15T10:32:42;30.95;;;5.82;;
58516;SDS011;44308;50.810;0.284;2022-11-15T10:35:17;32.95;;;5.63;;
58516;SDS011;44308;50.810;0.284;2022-11-15T10:37:48;27.52;;;6.30;;
58516;SDS011;44308;50.810;0.284;2022-11-15T10:43:04;29.15;;;6.05;;
58516;SDS011;44308;50.810;0.284;2022-11-15T10:48:42;51.72;;;7.03;;
58516;SDS011;44308;50.810;0.284;2022-11-15T10:51:18;32.63;;;6.45;;
58516;SDS011;44308;50.810;0.284;2022-11-15T10:53:56;26.50;;;5.88;;
58516;SDS011;44308;50.810;0.284;2022-11-15T10:56:25;37.70;;;5.30;;
58516;SDS011;44308;50.810;0.284;2022-11-15T10:58:55;27.10;;;5.10;;
58516;SDS011;44308;50.810;0.284;2022-11-15T11:01:23;28.90;;;5.82;;
58516;SDS011;44308;50.810;0.284;2022-11-15T11:04:12;25.60;;;5.43;;
58516;SDS011;44308;50.810;0.284;2022-11-15T11:06:57;32.45;;;6.10;;
58516;SDS011;44308;50.810;0.284;2022-11-15T11:09:28;26.17;;;5.32;;
58516;SDS011;44308;50.810;0.284;2022-11-15T11:11:58;29.85;;;5.95;;
58516;SDS011;44308;50.810;0.284;2022-11-15T11:14:29;28.20;;;5.70;;
58516;SDS011;44308;50.810;0.284;2022-11-15T11:17:06;37.63;;;6.20;;
58516;SDS011;44308;50.810;0.284;2022-11-15T11:31:24;24.67;;;6.35;;
58516;SDS011;44308;50.810;0.284;2022-11-15T11:40:18;21.00;;;6.15;;
58516;SDS011;44308;50.810;0.284;2022-11-15T11:43:10;23.27;;;6.32;;
58516;SDS011;44308;50.810;0.284;2022-11-15T11:46:02;19.13;;;5.28;;
58516;SDS011;44308;50.810;0.284;2022-11-15T11:48:51;29.88;;;6.85;;
58516;SDS011;44308;50.810;0.284;2022-11-15T11:51:34;41.28;;;6.35;;
58516;SDS011;44308;50.810;0.284;2022-11-15T11:57:07;35.08;;;6.43;;
58516;SDS011;44308;50.810;0.284;2022-11-15T12:00:09;42.78;;;7.10;;
58516;SDS011;44308;50.810;0.284;2022-11-15T12:02:41;55.28;;;7.53;;
58516;SDS011;44308;50.810;0.284;2022-11-15T12:05:15;37.63;;;7.68;;
58516;SDS011;44308;50.810;0.284;2022-11-15T12:07:49;78.13;;;7.55;;
58516;SDS011;44308;50.810;0.284;2022-11-15T12:10:24;30.00;;;6.63;;
58516;SDS011;44308;50.810;0.284;2022-11-15T12:12:56;38.13;;;7.05;;
58516;SDS011;44308;50.810;0.284;2022-11-15T12:18:24;42.85;;;6.95;;
58516;SDS011;44308;50.810;0.284;2022-11-15T12:20:57;43.85;;;8.23;;
58516;SDS011;44308;50.810;0.284;2022-11-15T12:23:28;52.70;;;8.73;;
58516;SDS011;44308;50.810;0.284;2022-11-15T12:26:00;44.65;;;8.43;;
58516;SDS011;44308;50.810;0.284;2022-11-15T12:28:51;51.92;;;8.02;;
58516;SDS011;44308;50.810;0.284;2022-11-15T12:31:32;42.55;;;6.95;;
58516;SDS011;44308;50.810;0.284;2022-11-15T12:36:48;30.02;;;6.15;;
58516;SDS011;44308;50.810;0.284;2022-11-15T12:39:15;37.67;;;7.82;;
58516;SDS011;44308;50.810;0.284;2022-11-15T12:42:34;27.67;;;5.90;;
58516;SDS011;44308;50.810;0.284;2022-11-15T13:17:47;16.95;;;4.68;;
58516;SDS011;44308;50.810;0.284;2022-11-15T13:31:26;17.85;;;3.88;;
58516;SDS011;44308;50.810;0.284;2022-11-15T13:34:02;24.08;;;4.85;;
58516;SDS011;44308;50.810;0.284;2022-11-15T13:41:57;20.23;;;4.22;;
58516;SDS011;44308;50.810;0.284;2022-11-15T13:44:27;21.48;;;5.93;;
58516;SDS011;44308;50.810;0.284;2022-11-15T13:49:29;25.38;;;5.00;;
58516;SDS011;44308;50.810;0.284;2022-11-15T13:51:56;21.80;;;4.45;;
58516;SDS011;44308;50.810;0.284;2022-11-15T13:59:35;16.23;;;3.67;;
58516;SDS011;44308;50.810;0.284;2022-11-15T14:02:14;23.90;;;4.40;;
58516;SDS011;44308;50.810;0.284;2022-11-15T14:04:46;25.20;;;4.18;;
58516;SDS011;44308;50.810;0.284;2022-11-15T14:07:20;21.58;;;3.97;;
58516;SDS011;44308;50.810;0.284;2022-11-15T14:14:54;30.00;;;4.70;;
58516;SDS011;44308;50.810;0.284;2022-11-15T14:17:21;26.63;;;4.72;;
58516;SDS011;44308;50.810;0.284;2022-11-15T14:19:59;19.65;;;4.07;;
58516;SDS011;44308;50.810;0.284;2022-11-15T14:22:25;13.93;;;3.83;;
58516;SDS011;44308;50.810;0.284;2022-11-15T14:27:40;21.45;;;3.83;;
58516;SDS011;44308;50.810;0.284;2022-11-15T14:30:16;17.70;;;3.97;;
58516;SDS011;44308;50.810;0.284;2022-11-15T14:35:12;17.80;;;2.80;;
58516;SDS011;44308;50.810;0.284;2022-11-15T14:37:45;22.20;;;3.78;;
58516;SDS011;44308;50.810;0.284;2022-11-15T14:40:13;25.63;;;4.60;;
58516;SDS011;44308;50.810;0.284;2022-11-15T14:42:43;17.08;;;3.38;;
58516;SDS011;44308;50.810;0.284;2022-11-15T14:45:20;17.23;;;3.25;;
58516;SDS011;44308;50.810;0.284;2022-11-15T14:47:46;21.48;;;3.67;;
58516;SDS011;44308;50.810;0.284;2022-11-15T14:50:13;14.40;;;2.28;;
58516;SDS011;44308;50.810;0.284;2022-11-15T14:52:40;10.32;;;2.55;;
58516;SDS011;44308;50.810;0.284;2022-11-15T14:55:25;10.35;;;2.30;;
58516;SDS011;44308;50.810;0.284;2022-11-15T14:57:53;13.05;;;2.58;;
58516;SDS011;44308;50.810;0.284;2022-11-15T15:00:20;19.20;;;3.55;;
58516;SDS011;44308;50.810;0.284;2022-11-15T15:02:46;26.10;;;3.35;;
58516;SDS011;44308;50.810;0.284;2022-11-15T15:05:20;17.90;;;2.83;;
58516;SDS011;44308;50.810;0.284;2022-11-15T15:07:48;15.60;;;3.58;;
58516;SDS011;44308;50.810;0.284;2022-11-15T15:10:15;20.83;;;3.72;;
58516;SDS011;44308;50.810;0.284;2022-11-15T15:12:41;14.75;;;3.53;;
58516;SDS011;44308;50.810;0.284;2022-11-15T15:15:22;15.18;;;3.13;;
58516;SDS011;44308;50.810;0.284;2022-11-15T15:17:50;11.32;;;2.28;;
58516;SDS011;44308;50.810;0.284;2022-11-15T15:20:16;7.95;;;2.13;;
58516;SDS011;44308;50.810;0.284;2022-11-15T15:22:41;10.52;;;2.35;;
58516;SDS011;44308;50.810;0.284;2022-11-15T15:28:13;6.45;;;2.58;;
58516;SDS011;44308;50.810;0.284;2022-11-15T15:30:39;9.70;;;2.35;;
58516;SDS011;44308;50.810;0.284;2022-11-15T15:33:05;13.02;;;2.08;;
58516;SDS011;44308;50.810;0.284;2022-11-15T15:35:32;11.68;;;2.20;;
58516;SDS011;44308;50.810;0.284;2022-11-15T15:37:59;13.02;;;3.08;;
58516;SDS011;44308;50.810;0.284;2022-11-15T15:40:25;7.80;;;2.05;;
58516;SDS011;44308;50.810;0.284;2022-11-15T15:42:53;13.85;;;2.72;;
58516;SDS011;44308;50.810;0.284;2022-11-15T15:45:19;16.98;;;2.63;;
58516;SDS011;44308;50.810;0.284;2022-11-15T15:47:45;17.73;;;3.40;;
58516;SDS011;44308;50.810;0.284;2022-11-15T15:50:20;12.73;;;3.40;;
58516;SDS011;44308;50.810;0.284;2022-11-15T15:52:49;10.93;;;2.33;;
58516;SDS011;44308;50.810;0.284;2022-11-15T15:55:16;15.38;;;2.70;;
58516;SDS011;44308;50.810;0.284;2022-11-15T15:57:42;10.70;;;2.10;;
58516;SDS011;44308;50.810;0.284;2022-11-15T16:00:08;12.82;;;2.92;;
58516;SDS011;44308;50.810;0.284;2022-11-15T16:02:35;16.27;;;2.85;;
58516;SDS011;44308;50.810;0.284;2022-11-15T16:05:01;11.52;;;2.92;;
58516;SDS011;44308;50.810;0.284;2022-11-15T16:07:26;24.85;;;4.20;;
58516;SDS011;44308;50.810;0.284;2022-11-15T16:09:54;8.90;;;2.50;;
58516;SDS011;44308;50.810;0.284;2022-11-15T16:12:27;13.50;;;3.28;;
58516;SDS011;44308;50.810;0.284;2022-11-15T16:14:53;16.23;;;2.70;;
58516;SDS011;44308;50.810;0.284;2022-11-15T16:17:23;17.65;;;3.45;;
58516;SDS011;44308;50.810;0.284;2022-11-15T16:19:51;9.25;;;2.90;;
58516;SDS011;44308;50.810;0.284;2022-11-15T16:22:17;16.08;;;2.80;;
58516;SDS011;44308;50.810;0.284;2022-11-15T16:24:42;37.70;;;4.07;;
58516;SDS011;44308;50.810;0.284;2022-11-15T16:27:15;17.02;;;2.42;;
58516;SDS011;44308;50.810;0.284;2022-11-15T16:29:43;14.82;;;3.78;;
58516;SDS011;44308;50.810;0.284;2022-11-15T16:32:10;18.05;;;3.40;;
58516;SDS011;44308;50.810;0.284;2022-11-15T16:34:36;18.65;;;3.33;;
58516;SDS011;44308;50.810;0.284;2022-11-15T16:37:03;16.63;;;2.65;;
58516;SDS011;44308;50.810;0.284;2022-11-15T16:39:29;15.90;;;3.10;;
58516;SDS011;44308;50.810;0.284;2022-11-15T16:41:56;6.50;;;2.28;;
58516;SDS011;44308;50.810;0.284;2022-11-15T16:44:23;10.30;;;2.78;;
58516;SDS011;44308;50.810;0.284;2022-11-15T16:46:49;13.02;;;2.83;;
58516;SDS011;44308;50.810;0.284;2022-11-15T16:49:18;10.45;;;2.38;;
58516;SDS011;44308;50.810;0.284;2022-11-15T16:51:46;7.90;;;2.95;;
58516;SDS011;44308;50.810;0.284;2022-11-15T16:54:12;15.02;;;3.28;;
58516;SDS011;44308;50.810;0.284;2022-11-15T16:59:23;11.68;;;2.92;;
58516;SDS011;44308;50.810;0.284;2022-11-15T17:01:49;17.27;;;3.60;;
58516;SDS011;44308;50.810;0.284;2022-11-15T17:04:17;17.40;;;3.28;;
58516;SDS011;44308;50.810;0.284;2022-11-15T17:06:45;7.25;;;2.55;;
58516;SDS011;44308;50.810;0.284;2022-11-15T17:09:21;10.40;;;2.53;;
58516;SDS011;44308;50.810;0.284;2022-11-15T17:11:48;8.98;;;2.90;;
58516;SDS011;44308;50.810;0.284;2022-11-15T17:14:14;15.02;;;2.90;;
58516;SDS011;44308;50.810;0.284;2022-11-15T17:16:41;7.93;;;2.70;;
58516;SDS011;44308;50.810;0.284;2022-11-15T17:19:15;5.70;;;1.67;;
58516;SDS011;44308;50.810;0.284;2022-11-15T17:21:45;9.25;;;2.17;;
58516;SDS011;44308;50.810;0.284;2022-11-15T17:24:13;5.50;;;1.67;;
58516;SDS011;44308;50.810;0.284;2022-11-15T17:26:39;11.30;;;2.50;;
58516;SDS011;44308;50.810;0.284;2022-11-15T17:29:07;11.68;;;2.92;;
58516;SDS011;44308;50.810;0.284;2022-11-15T17:31:39;19.83;;;3.42;;
58516;SDS011;44308;50.810;0.284;2022-11-15T17:34:05;26.25;;;3.28;;
58516;SDS011;44308;50.810;0.284;2022-11-15T17:36:31;36.63;;;4.10;;
58516;SDS011;44308;50.810;0.284;2022-11-15T17:38:58;20.25;;;3.85;;
58516;SDS011;44308;50.810;0.284;2022-11-15T17:41:27;31.05;;;3.72;;
58516;SDS011;44308;50.810;0.284;2022-11-15T17:43:55;22.48;;;3.85;;
58516;SDS011;44308;50.810;0.284;2022-11-15T17:46:23;21.45;;;3.45;;
58516;SDS011;44308;50.810;0.284;2022-11-15T17:48:48;24.08;;;3.47;;
58516;SDS011;44308;50.810;0.284;2022-11-15T17:51:15;17.17;;;3.65;;
58516;SDS011;44308;50.810;0.284;2022-11-15T17:53:43;20.00;;;3.63;;
58516;SDS011;44308;50.810;0.284;2022-11-15T17:56:12;10.43;;;3.00;;
58516;SDS011;44308;50.810;0.284;2022-11-15T17:58:49;18.13;;;3.45;;
58516;SDS011;44308;50.810;0.284;2022-11-15T18:01:25;21.42;;;4.20;;
58516;SDS011;44308;50.810;0.284;2022-11-15T18:03:52;23.42;;;4.65;;
58516;SDS011;44308;50.810;0.284;2022-11-15T18:06:22;20.52;;;4.55;;
58516;SDS011;44308;50.810;0.284;2022-11-15T18:08:49;23.00;;;4.85;;
58516;SDS011;44308;50.810;0.284;2022-11-15T18:11:19;17.67;;;3.35;;
58516;SDS011;44308;50.810;0.284;2022-11-15T18:13:50;28.15;;;4.30;;
58516;SDS011;44308;50.810;0.284;2022-11-15T18:16:22;21.88;;;4.30;;
58516;SDS011;44308;50.810;0.284;2022-11-15T18:18:52;17.80;;;4.22;;
58516;SDS011;44308;50.810;0.284;2022-11-15T18:21:19;14.73;;;4.10;;
58516;SDS011;44308;50.810;0.284;2022-11-15T18:23:53;18.23;;;4.30;;
58516;SDS011;44308;50.810;0.284;2022-11-15T18:26:21;34.80;;;4.88;;